sensor_id;sensor_type;location;lat;lon;timestamp;P1;durP1;ratioP1;P2;durP2;ratioP2
71969;SDS011;59838;52.152;5.436;2022-11-30T00:01:14;15.88;;;9.15;;
71969;SDS011;59838;52.152;5.436;2022-11-30T00:03:41;15.30;;;9.38;;
71969;SDS011;59838;52.152;5.436;2022-11-30T00:06:09;16.33;;;8.63;;
71969;SDS011;59838;52.152;5.436;2022-11-30T00:08:37;19.73;;;9.70;;
71969;SDS011;59838;52.152;5.436;2022-11-30T00:11:23;16.63;;;9.37;;
71969;SDS011;59838;52.152;5.436;2022-11-30T00:13:51;15.20;;;8.60;;
71969;SDS011;59838;52.152;5.436;2022-11-30T00:16:18;17.67;;;9.52;;
71969;SDS011;59838;52.152;5.436;2022-11-30T00:18:44;18.67;;;9.52;;
71969;SDS011;59838;52.152;5.436;2022-11-30T00:21:11;16.42;;;9.32;;
71969;SDS011;59838;52.152;5.436;2022-11-30T00:23:40;17.43;;;9.97;;
71969;SDS011;59838;52.152;5.436;2022-11-30T00:26:09;16.95;;;9.38;;
71969;SDS011;59838;52.152;5.436;2022-11-30T00:28:38;18.17;;;9.57;;
71969;SDS011;59838;52.152;5.436;2022-11-30T00:31:06;16.20;;;8.93;;
71969;SDS011;59838;52.152;5.436;2022-11-30T00:33:35;20.45;;;9.98;;
71969;SDS011;59838;52.152;5.436;2022-11-30T00:36:07;18.57;;;9.60;;
71969;SDS011;59838;52.152;5.436;2022-11-30T00:38:37;19.30;;;10.23;;
71969;SDS011;59838;52.152;5.436;2022-11-30T00:41:03;18.58;;;9.35;;
71969;SDS011;59838;52.152;5.436;2022-11-30T00:43:30;19.90;;;11.00;;
71969;SDS011;59838;52.152;5.436;2022-11-30T00:45:57;17.83;;;9.50;;
71969;SDS011;59838;52.152;5.436;2022-11-30T00:48:24;14.90;;;8.70;;
71969;SDS011;59838;52.152;5.436;2022-11-30T00:50:50;17.75;;;9.32;;
71969;SDS011;59838;52.152;5.436;2022-11-30T00:53:17;19.13;;;8.95;;
71969;SDS011;59838;52.152;5.436;2022-11-30T00:55:44;16.15;;;9.35;;
71969;SDS011;59838;52.152;5.436;2022-11-30T00:58:11;14.93;;;8.60;;
71969;SDS011;59838;52.152;5.436;2022-11-30T01:00:38;16.13;;;9.10;;
71969;SDS011;59838;52.152;5.436;2022-11-30T01:03:04;14.93;;;8.55;;
71969;SDS011;59838;52.152;5.436;2022-11-30T01:05:31;17.08;;;9.95;;
71969;SDS011;59838;52.152;5.436;2022-11-30T01:07:59;19.30;;;9.73;;
71969;SDS011;59838;52.152;5.436;2022-11-30T01:10:27;16.70;;;9.73;;
71969;SDS011;59838;52.152;5.436;2022-11-30T01:12:53;20.53;;;11.13;;
71969;SDS011;59838;52.152;5.436;2022-11-30T01:15:20;19.67;;;10.07;;
71969;SDS011;59838;52.152;5.436;2022-11-30T01:17:47;18.15;;;10.43;;
71969;SDS011;59838;52.152;5.436;2022-11-30T01:20:13;15.55;;;10.00;;
71969;SDS011;59838;52.152;5.436;2022-11-30T01:22:40;16.73;;;9.45;;
71969;SDS011;59838;52.152;5.436;2022-11-30T01:25:06;17.60;;;9.87;;
71969;SDS011;59838;52.152;5.436;2022-11-30T01:27:33;17.75;;;9.57;;
71969;SDS011;59838;52.152;5.436;2022-11-30T01:29:59;20.13;;;10.13;;
71969;SDS011;59838;52.152;5.436;2022-11-30T01:32:26;15.95;;;8.82;;
71969;SDS011;59838;52.152;5.436;2022-11-30T01:34:52;19.77;;;10.73;;
71969;SDS011;59838;52.152;5.436;2022-11-30T01:37:19;19.33;;;10.07;;
71969;SDS011;59838;52.152;5.436;2022-11-30T01:39:45;19.85;;;9.63;;
71969;SDS011;59838;52.152;5.436;2022-11-30T01:42:13;19.58;;;11.13;;
71969;SDS011;59838;52.152;5.436;2022-11-30T01:44:49;18.00;;;9.63;;
71969;SDS011;59838;52.152;5.436;2022-11-30T01:48:03;16.98;;;9.45;;
71969;SDS011;59838;52.152;5.436;2022-11-30T01:50:17;18.33;;;9.30;;
71969;SDS011;59838;52.152;5.436;2022-11-30T01:52:49;19.95;;;9.93;;
71969;SDS011;59838;52.152;5.436;2022-11-30T01:55:19;17.10;;;9.07;;
71969;SDS011;59838;52.152;5.436;2022-11-30T02:00:17;18.40;;;9.85;;
71969;SDS011;59838;52.152;5.436;2022-11-30T02:05:34;19.98;;;9.13;;
71969;SDS011;59838;52.152;5.436;2022-11-30T02:08:03;19.60;;;8.98;;
71969;SDS011;59838;52.152;5.436;2022-11-30T02:10:32;18.83;;;9.68;;
71969;SDS011;59838;52.152;5.436;2022-11-30T02:13:04;18.33;;;9.82;;
71969;SDS011;59838;52.152;5.436;2022-11-30T02:15:39;19.57;;;10.03;;
71969;SDS011;59838;52.152;5.436;2022-11-30T02:18:13;20.15;;;9.48;;
71969;SDS011;59838;52.152;5.436;2022-11-30T02:20:54;22.38;;;9.95;;
71969;SDS011;59838;52.152;5.436;2022-11-30T02:23:36;16.63;;;9.13;;
71969;SDS011;59838;52.152;5.436;2022-11-30T02:34:45;17.65;;;9.68;;
71969;SDS011;59838;52.152;5.436;2022-11-30T02:37:14;16.42;;;9.43;;
71969;SDS011;59838;52.152;5.436;2022-11-30T02:39:43;15.73;;;8.57;;
71969;SDS011;59838;52.152;5.436;2022-11-30T02:42:13;14.97;;;8.17;;
71969;SDS011;59838;52.152;5.436;2022-11-30T02:44:40;15.93;;;8.90;;
71969;SDS011;59838;52.152;5.436;2022-11-30T02:47:21;15.85;;;8.32;;
71969;SDS011;59838;52.152;5.436;2022-11-30T02:49:55;15.18;;;7.93;;
71969;SDS011;59838;52.152;5.436;2022-11-30T02:52:35;18.02;;;8.73;;
71969;SDS011;59838;52.152;5.436;2022-11-30T02:55:02;14.67;;;8.27;;
71969;SDS011;59838;52.152;5.436;2022-11-30T02:57:32;17.30;;;8.63;;
71969;SDS011;59838;52.152;5.436;2022-11-30T02:59:58;15.70;;;7.95;;
71969;SDS011;59838;52.152;5.436;2022-11-30T03:02:27;15.80;;;8.63;;
71969;SDS011;59838;52.152;5.436;2022-11-30T03:04:53;18.17;;;9.43;;
71969;SDS011;59838;52.152;5.436;2022-11-30T03:07:19;13.67;;;8.00;;
71969;SDS011;59838;52.152;5.436;2022-11-30T03:09:46;15.27;;;7.68;;
71969;SDS011;59838;52.152;5.436;2022-11-30T03:12:12;14.20;;;8.55;;
71969;SDS011;59838;52.152;5.436;2022-11-30T03:14:39;13.40;;;8.07;;
71969;SDS011;59838;52.152;5.436;2022-11-30T03:17:05;16.45;;;8.38;;
71969;SDS011;59838;52.152;5.436;2022-11-30T03:19:32;21.33;;;9.10;;
71969;SDS011;59838;52.152;5.436;2022-11-30T03:21:59;16.30;;;8.70;;
71969;SDS011;59838;52.152;5.436;2022-11-30T03:24:25;16.55;;;8.70;;
71969;SDS011;59838;52.152;5.436;2022-11-30T03:26:52;13.77;;;7.43;;
71969;SDS011;59838;52.152;5.436;2022-11-30T03:29:18;13.57;;;8.10;;
71969;SDS011;59838;52.152;5.436;2022-11-30T03:31:44;14.83;;;8.30;;
71969;SDS011;59838;52.152;5.436;2022-11-30T03:34:11;14.48;;;8.65;;
71969;SDS011;59838;52.152;5.436;2022-11-30T03:36:37;15.93;;;7.57;;
71969;SDS011;59838;52.152;5.436;2022-11-30T03:39:03;15.98;;;8.43;;
71969;SDS011;59838;52.152;5.436;2022-11-30T03:41:30;20.17;;;8.85;;
71969;SDS011;59838;52.152;5.436;2022-11-30T03:43:56;15.10;;;8.43;;
71969;SDS011;59838;52.152;5.436;2022-11-30T03:46:23;15.55;;;8.05;;
71969;SDS011;59838;52.152;5.436;2022-11-30T03:48:52;17.40;;;8.48;;
71969;SDS011;59838;52.152;5.436;2022-11-30T03:51:19;18.20;;;9.10;;
71969;SDS011;59838;52.152;5.436;2022-11-30T03:53:45;16.02;;;8.75;;
71969;SDS011;59838;52.152;5.436;2022-11-30T03:56:11;15.10;;;7.97;;
71969;SDS011;59838;52.152;5.436;2022-11-30T03:58:39;15.95;;;8.68;;
71969;SDS011;59838;52.152;5.436;2022-11-30T04:03:37;16.83;;;9.20;;
71969;SDS011;59838;52.152;5.436;2022-11-30T04:06:05;15.85;;;8.75;;
71969;SDS011;59838;52.152;5.436;2022-11-30T04:08:33;19.40;;;8.17;;
71969;SDS011;59838;52.152;5.436;2022-11-30T04:11:00;13.23;;;7.97;;
71969;SDS011;59838;52.152;5.436;2022-11-30T04:13:27;18.40;;;9.20;;
71969;SDS011;59838;52.152;5.436;2022-11-30T04:15:55;17.45;;;9.32;;
71969;SDS011;59838;52.152;5.436;2022-11-30T04:18:22;15.80;;;8.80;;
71969;SDS011;59838;52.152;5.436;2022-11-30T04:20:50;18.73;;;9.10;;
71969;SDS011;59838;52.152;5.436;2022-11-30T04:23:17;16.02;;;8.57;;
71969;SDS011;59838;52.152;5.436;2022-11-30T04:25:44;17.50;;;9.40;;
71969;SDS011;59838;52.152;5.436;2022-11-30T04:28:13;14.80;;;8.38;;
71969;SDS011;59838;52.152;5.436;2022-11-30T04:30:41;19.25;;;9.35;;
71969;SDS011;59838;52.152;5.436;2022-11-30T04:33:08;16.83;;;8.53;;
71969;SDS011;59838;52.152;5.436;2022-11-30T04:35:38;14.82;;;8.10;;
71969;SDS011;59838;52.152;5.436;2022-11-30T04:38:10;15.32;;;8.45;;
71969;SDS011;59838;52.152;5.436;2022-11-30T04:40:38;15.98;;;7.75;;
71969;SDS011;59838;52.152;5.436;2022-11-30T04:43:06;18.35;;;9.00;;
71969;SDS011;59838;52.152;5.436;2022-11-30T04:45:32;15.50;;;8.53;;
71969;SDS011;59838;52.152;5.436;2022-11-30T04:48:00;15.35;;;7.65;;
71969;SDS011;59838;52.152;5.436;2022-11-30T04:50:27;16.98;;;8.20;;
71969;SDS011;59838;52.152;5.436;2022-11-30T04:52:54;15.90;;;8.25;;
71969;SDS011;59838;52.152;5.436;2022-11-30T04:55:20;14.68;;;7.95;;
71969;SDS011;59838;52.152;5.436;2022-11-30T04:57:46;19.23;;;10.17;;
71969;SDS011;59838;52.152;5.436;2022-11-30T05:00:14;17.65;;;8.82;;
71969;SDS011;59838;52.152;5.436;2022-11-30T05:02:41;17.50;;;9.88;;
71969;SDS011;59838;52.152;5.436;2022-11-30T05:05:17;18.77;;;9.48;;
71969;SDS011;59838;52.152;5.436;2022-11-30T05:07:43;23.00;;;10.10;;
71969;SDS011;59838;52.152;5.436;2022-11-30T05:10:10;18.03;;;9.77;;
71969;SDS011;59838;52.152;5.436;2022-11-30T05:12:36;19.70;;;8.90;;
71969;SDS011;59838;52.152;5.436;2022-11-30T05:15:02;19.25;;;9.35;;
71969;SDS011;59838;52.152;5.436;2022-11-30T05:17:29;19.70;;;9.35;;
71969;SDS011;59838;52.152;5.436;2022-11-30T05:19:56;22.70;;;10.95;;
71969;SDS011;59838;52.152;5.436;2022-11-30T05:22:22;17.37;;;9.63;;
71969;SDS011;59838;52.152;5.436;2022-11-30T05:24:49;19.60;;;9.63;;
71969;SDS011;59838;52.152;5.436;2022-11-30T05:27:15;20.33;;;10.18;;
71969;SDS011;59838;52.152;5.436;2022-11-30T05:29:47;18.42;;;9.25;;
71969;SDS011;59838;52.152;5.436;2022-11-30T05:32:14;19.25;;;9.40;;
71969;SDS011;59838;52.152;5.436;2022-11-30T05:34:40;19.37;;;9.57;;
71969;SDS011;59838;52.152;5.436;2022-11-30T05:37:16;21.10;;;8.90;;
71969;SDS011;59838;52.152;5.436;2022-11-30T05:39:43;17.70;;;9.05;;
71969;SDS011;59838;52.152;5.436;2022-11-30T05:42:09;19.00;;;10.00;;
71969;SDS011;59838;52.152;5.436;2022-11-30T05:44:35;17.80;;;9.13;;
71969;SDS011;59838;52.152;5.436;2022-11-30T05:47:02;16.43;;;8.93;;
71969;SDS011;59838;52.152;5.436;2022-11-30T05:49:28;14.57;;;6.90;;
71969;SDS011;59838;52.152;5.436;2022-11-30T05:51:55;14.27;;;7.53;;
71969;SDS011;59838;52.152;5.436;2022-11-30T05:54:21;12.57;;;6.82;;
71969;SDS011;59838;52.152;5.436;2022-11-30T05:56:47;13.40;;;7.53;;
71969;SDS011;59838;52.152;5.436;2022-11-30T05:59:19;10.23;;;6.13;;
71969;SDS011;59838;52.152;5.436;2022-11-30T06:01:46;13.68;;;7.53;;
71969;SDS011;59838;52.152;5.436;2022-11-30T06:04:12;15.00;;;8.18;;
71969;SDS011;59838;52.152;5.436;2022-11-30T06:06:39;13.20;;;6.63;;
71969;SDS011;59838;52.152;5.436;2022-11-30T06:09:05;12.07;;;7.53;;
71969;SDS011;59838;52.152;5.436;2022-11-30T06:11:32;12.07;;;6.50;;
71969;SDS011;59838;52.152;5.436;2022-11-30T06:13:58;12.23;;;6.88;;
71969;SDS011;59838;52.152;5.436;2022-11-30T06:16:24;20.25;;;8.35;;
71969;SDS011;59838;52.152;5.436;2022-11-30T06:18:51;21.85;;;9.10;;
71969;SDS011;59838;52.152;5.436;2022-11-30T06:21:17;16.88;;;8.88;;
71969;SDS011;59838;52.152;5.436;2022-11-30T06:23:49;19.60;;;9.00;;
71969;SDS011;59838;52.152;5.436;2022-11-30T06:26:16;19.73;;;8.60;;
71969;SDS011;59838;52.152;5.436;2022-11-30T06:28:42;19.67;;;8.75;;
71969;SDS011;59838;52.152;5.436;2022-11-30T06:31:13;16.58;;;8.25;;
71969;SDS011;59838;52.152;5.436;2022-11-30T06:33:40;19.98;;;8.90;;
71969;SDS011;59838;52.152;5.436;2022-11-30T06:36:06;17.53;;;8.90;;
71969;SDS011;59838;52.152;5.436;2022-11-30T06:38:33;15.18;;;8.07;;
71969;SDS011;59838;52.152;5.436;2022-11-30T06:41:04;16.75;;;7.72;;
71969;SDS011;59838;52.152;5.436;2022-11-30T06:43:35;13.50;;;6.88;;
71969;SDS011;59838;52.152;5.436;2022-11-30T06:46:03;15.80;;;7.47;;
71969;SDS011;59838;52.152;5.436;2022-11-30T06:48:31;12.77;;;6.50;;
71969;SDS011;59838;52.152;5.436;2022-11-30T06:50:58;15.20;;;6.95;;
71969;SDS011;59838;52.152;5.436;2022-11-30T06:53:25;15.60;;;7.55;;
71969;SDS011;59838;52.152;5.436;2022-11-30T06:55:52;10.68;;;6.57;;
71969;SDS011;59838;52.152;5.436;2022-11-30T06:58:19;14.82;;;6.55;;
71969;SDS011;59838;52.152;5.436;2022-11-30T07:00:45;11.93;;;6.37;;
71969;SDS011;59838;52.152;5.436;2022-11-30T07:03:12;11.50;;;6.47;;
71969;SDS011;59838;52.152;5.436;2022-11-30T07:05:42;11.77;;;6.07;;
71969;SDS011;59838;52.152;5.436;2022-11-30T07:08:10;15.07;;;6.80;;
71969;SDS011;59838;52.152;5.436;2022-11-30T07:10:39;11.27;;;6.05;;
71969;SDS011;59838;52.152;5.436;2022-11-30T07:13:10;14.07;;;7.30;;
71969;SDS011;59838;52.152;5.436;2022-11-30T07:15:38;12.85;;;6.35;;
71969;SDS011;59838;52.152;5.436;2022-11-30T07:18:06;13.85;;;6.72;;
71969;SDS011;59838;52.152;5.436;2022-11-30T07:20:33;17.00;;;6.85;;
71969;SDS011;59838;52.152;5.436;2022-11-30T07:23:00;17.95;;;7.93;;
71969;SDS011;59838;52.152;5.436;2022-11-30T07:25:45;15.47;;;6.90;;
71969;SDS011;59838;52.152;5.436;2022-11-30T07:28:30;19.88;;;7.38;;
71969;SDS011;59838;52.152;5.436;2022-11-30T07:31:02;16.58;;;7.18;;
71969;SDS011;59838;52.152;5.436;2022-11-30T07:33:41;18.90;;;7.60;;
71969;SDS011;59838;52.152;5.436;2022-11-30T07:36:09;20.48;;;8.75;;
71969;SDS011;59838;52.152;5.436;2022-11-30T07:38:35;25.27;;;7.97;;
71969;SDS011;59838;52.152;5.436;2022-11-30T07:41:02;20.85;;;9.68;;
71969;SDS011;59838;52.152;5.436;2022-11-30T07:43:28;30.70;;;8.43;;
71969;SDS011;59838;52.152;5.436;2022-11-30T07:45:55;25.70;;;9.30;;
71969;SDS011;59838;52.152;5.436;2022-11-30T07:48:22;37.78;;;9.93;;
71969;SDS011;59838;52.152;5.436;2022-11-30T07:50:48;31.30;;;10.07;;
71969;SDS011;59838;52.152;5.436;2022-11-30T07:53:14;27.52;;;10.35;;
71969;SDS011;59838;52.152;5.436;2022-11-30T07:55:41;27.73;;;10.27;;
71969;SDS011;59838;52.152;5.436;2022-11-30T07:58:08;32.78;;;10.05;;
71969;SDS011;59838;52.152;5.436;2022-11-30T08:00:42;74.10;;;10.52;;
71969;SDS011;59838;52.152;5.436;2022-11-30T08:03:08;42.27;;;8.43;;
71969;SDS011;59838;52.152;5.436;2022-11-30T08:05:35;29.10;;;8.60;;
71969;SDS011;59838;52.152;5.436;2022-11-30T08:08:01;28.58;;;7.93;;
71969;SDS011;59838;52.152;5.436;2022-11-30T08:10:28;18.13;;;8.60;;
71969;SDS011;59838;52.152;5.436;2022-11-30T08:12:54;21.40;;;7.18;;
71969;SDS011;59838;52.152;5.436;2022-11-30T08:15:21;84.87;;;9.37;;
71969;SDS011;59838;52.152;5.436;2022-11-30T08:17:56;24.67;;;8.82;;
71969;SDS011;59838;52.152;5.436;2022-11-30T08:20:25;20.90;;;8.90;;
71969;SDS011;59838;52.152;5.436;2022-11-30T08:22:51;16.90;;;7.25;;
71969;SDS011;59838;52.152;5.436;2022-11-30T08:25:18;17.55;;;7.55;;
71969;SDS011;59838;52.152;5.436;2022-11-30T08:27:44;16.93;;;8.10;;
71969;SDS011;59838;52.152;5.436;2022-11-30T08:30:10;38.22;;;8.85;;
71969;SDS011;59838;52.152;5.436;2022-11-30T08:32:37;24.77;;;9.02;;
71969;SDS011;59838;52.152;5.436;2022-11-30T08:35:04;18.73;;;8.20;;
71969;SDS011;59838;52.152;5.436;2022-11-30T08:37:30;14.15;;;7.70;;
71969;SDS011;59838;52.152;5.436;2022-11-30T08:39:57;16.07;;;7.30;;
71969;SDS011;59838;52.152;5.436;2022-11-30T08:42:23;18.50;;;8.50;;
71969;SDS011;59838;52.152;5.436;2022-11-30T08:44:50;16.77;;;8.02;;
71969;SDS011;59838;52.152;5.436;2022-11-30T08:47:16;16.05;;;8.25;;
71969;SDS011;59838;52.152;5.436;2022-11-30T08:49:42;18.23;;;8.45;;
71969;SDS011;59838;52.152;5.436;2022-11-30T08:52:09;16.03;;;8.50;;
71969;SDS011;59838;52.152;5.436;2022-11-30T08:54:44;17.08;;;8.07;;
71969;SDS011;59838;52.152;5.436;2022-11-30T08:57:16;18.02;;;8.65;;
71969;SDS011;59838;52.152;5.436;2022-11-30T08:59:45;17.52;;;8.25;;
71969;SDS011;59838;52.152;5.436;2022-11-30T09:02:12;18.75;;;9.40;;
71969;SDS011;59838;52.152;5.436;2022-11-30T09:04:43;16.83;;;8.53;;
71969;SDS011;59838;52.152;5.436;2022-11-30T09:07:09;21.63;;;9.20;;
71969;SDS011;59838;52.152;5.436;2022-11-30T09:09:36;19.55;;;9.63;;
71969;SDS011;59838;52.152;5.436;2022-11-30T09:12:03;17.77;;;9.02;;
71969;SDS011;59838;52.152;5.436;2022-11-30T09:14:29;21.27;;;9.75;;
71969;SDS011;59838;52.152;5.436;2022-11-30T09:16:56;19.50;;;9.47;;
71969;SDS011;59838;52.152;5.436;2022-11-30T09:19:23;25.58;;;11.43;;
71969;SDS011;59838;52.152;5.436;2022-11-30T09:21:50;26.38;;;11.32;;
71969;SDS011;59838;52.152;5.436;2022-11-30T09:24:18;23.40;;;10.40;;
71969;SDS011;59838;52.152;5.436;2022-11-30T09:26:45;22.80;;;10.45;;
71969;SDS011;59838;52.152;5.436;2022-11-30T09:29:12;21.07;;;9.83;;
71969;SDS011;59838;52.152;5.436;2022-11-30T09:31:38;20.80;;;9.65;;
71969;SDS011;59838;52.152;5.436;2022-11-30T09:34:05;20.83;;;10.82;;
71969;SDS011;59838;52.152;5.436;2022-11-30T09:36:31;24.52;;;10.02;;
71969;SDS011;59838;52.152;5.436;2022-11-30T09:38:59;21.80;;;10.95;;
71969;SDS011;59838;52.152;5.436;2022-11-30T09:46:32;24.17;;;11.48;;
71969;SDS011;59838;52.152;5.436;2022-11-30T09:51:52;25.55;;;11.40;;
71969;SDS011;59838;52.152;5.436;2022-11-30T09:54:24;23.43;;;11.17;;
71969;SDS011;59838;52.152;5.436;2022-11-30T09:57:02;24.33;;;11.63;;
71969;SDS011;59838;52.152;5.436;2022-11-30T09:59:38;25.08;;;12.38;;
71969;SDS011;59838;52.152;5.436;2022-11-30T10:02:28;23.20;;;11.02;;
71969;SDS011;59838;52.152;5.436;2022-11-30T10:04:57;24.15;;;11.90;;
71969;SDS011;59838;52.152;5.436;2022-11-30T10:13:55;25.02;;;11.38;;
71969;SDS011;59838;52.152;5.436;2022-11-30T10:16:37;22.17;;;11.60;;
71969;SDS011;59838;52.152;5.436;2022-11-30T10:19:25;23.48;;;11.77;;
71969;SDS011;59838;52.152;5.436;2022-11-30T10:22:20;25.80;;;12.53;;
71969;SDS011;59838;52.152;5.436;2022-11-30T10:27:51;22.35;;;12.02;;
71969;SDS011;59838;52.152;5.436;2022-11-30T10:30:23;24.13;;;11.52;;
71969;SDS011;59838;52.152;5.436;2022-11-30T10:32:56;22.80;;;12.23;;
71969;SDS011;59838;52.152;5.436;2022-11-30T10:38:38;22.63;;;11.48;;
71969;SDS011;59838;52.152;5.436;2022-11-30T10:46:30;24.50;;;12.63;;
71969;SDS011;59838;52.152;5.436;2022-11-30T10:49:06;26.27;;;12.03;;
71969;SDS011;59838;52.152;5.436;2022-11-30T10:51:37;24.67;;;12.20;;
71969;SDS011;59838;52.152;5.436;2022-11-30T10:54:17;22.42;;;11.35;;
71969;SDS011;59838;52.152;5.436;2022-11-30T10:56:46;18.42;;;10.43;;
71969;SDS011;59838;52.152;5.436;2022-11-30T11:10:18;22.52;;;10.80;;
71969;SDS011;59838;52.152;5.436;2022-11-30T11:12:50;21.42;;;10.63;;
71969;SDS011;59838;52.152;5.436;2022-11-30T11:15:36;18.17;;;9.93;;
71969;SDS011;59838;52.152;5.436;2022-11-30T11:20:41;13.50;;;8.25;;
71969;SDS011;59838;52.152;5.436;2022-11-30T11:23:18;12.30;;;7.40;;
71969;SDS011;59838;52.152;5.436;2022-11-30T11:25:48;13.50;;;7.50;;
71969;SDS011;59838;52.152;5.436;2022-11-30T11:28:18;15.90;;;8.20;;
71969;SDS011;59838;52.152;5.436;2022-11-30T11:30:52;16.70;;;8.55;;
71969;SDS011;59838;52.152;5.436;2022-11-30T11:33:27;14.68;;;7.88;;
71969;SDS011;59838;52.152;5.436;2022-11-30T11:35:55;16.75;;;9.05;;
71969;SDS011;59838;52.152;5.436;2022-11-30T11:38:40;14.65;;;8.55;;
71969;SDS011;59838;52.152;5.436;2022-11-30T11:41:12;17.27;;;8.50;;
71969;SDS011;59838;52.152;5.436;2022-11-30T11:43:57;19.23;;;9.77;;
71969;SDS011;59838;52.152;5.436;2022-11-30T11:49:27;19.08;;;9.50;;
71969;SDS011;59838;52.152;5.436;2022-11-30T11:52:00;16.98;;;8.45;;
71969;SDS011;59838;52.152;5.436;2022-11-30T12:00:37;19.63;;;9.45;;
71969;SDS011;59838;52.152;5.436;2022-11-30T12:03:05;17.00;;;9.30;;
71969;SDS011;59838;52.152;5.436;2022-11-30T12:05:40;19.52;;;9.75;;
71969;SDS011;59838;52.152;5.436;2022-11-30T12:08:12;19.20;;;10.50;;
71969;SDS011;59838;52.152;5.436;2022-11-30T12:10:54;20.52;;;9.88;;
71969;SDS011;59838;52.152;5.436;2022-11-30T12:13:27;19.33;;;10.60;;
71969;SDS011;59838;52.152;5.436;2022-11-30T12:16:05;21.73;;;10.88;;
71969;SDS011;59838;52.152;5.436;2022-11-30T12:27:44;21.20;;;10.88;;
71969;SDS011;59838;52.152;5.436;2022-11-30T12:30:24;18.85;;;10.38;;
71969;SDS011;59838;52.152;5.436;2022-11-30T12:33:14;20.30;;;10.55;;
71969;SDS011;59838;52.152;5.436;2022-11-30T12:39:14;20.20;;;11.30;;
71969;SDS011;59838;52.152;5.436;2022-11-30T12:41:59;23.50;;;11.98;;
71969;SDS011;59838;52.152;5.436;2022-11-30T12:47:37;23.50;;;12.48;;
71969;SDS011;59838;52.152;5.436;2022-11-30T12:53:33;23.17;;;11.43;;
71969;SDS011;59838;52.152;5.436;2022-11-30T12:56:29;20.27;;;11.07;;
71969;SDS011;59838;52.152;5.436;2022-11-30T12:59:24;20.90;;;11.25;;
71969;SDS011;59838;52.152;5.436;2022-11-30T13:02:03;21.08;;;10.00;;
71969;SDS011;59838;52.152;5.436;2022-11-30T13:04:59;25.33;;;12.13;;
71969;SDS011;59838;52.152;5.436;2022-11-30T13:12:43;21.52;;;10.95;;
71969;SDS011;59838;52.152;5.436;2022-11-30T13:15:23;21.52;;;11.38;;
71969;SDS011;59838;52.152;5.436;2022-11-30T13:17:52;21.50;;;11.43;;
71969;SDS011;59838;52.152;5.436;2022-11-30T13:21:07;25.50;;;11.88;;
71969;SDS011;59838;52.152;5.436;2022-11-30T13:28:51;21.48;;;11.75;;
71969;SDS011;59838;52.152;5.436;2022-11-30T13:33:58;23.27;;;10.98;;
71969;SDS011;59838;52.152;5.436;2022-11-30T13:44:35;26.13;;;10.00;;
71969;SDS011;59838;52.152;5.436;2022-11-30T13:47:03;22.98;;;9.75;;
71969;SDS011;59838;52.152;5.436;2022-11-30T13:49:41;19.83;;;10.27;;
71969;SDS011;59838;52.152;5.436;2022-11-30T13:52:10;18.45;;;8.75;;
71969;SDS011;59838;52.152;5.436;2022-11-30T13:54:48;18.42;;;9.68;;
71969;SDS011;59838;52.152;5.436;2022-11-30T13:59:54;20.42;;;9.45;;
71969;SDS011;59838;52.152;5.436;2022-11-30T14:02:49;19.42;;;9.13;;
71969;SDS011;59838;52.152;5.436;2022-11-30T14:10:28;17.07;;;7.97;;
71969;SDS011;59838;52.152;5.436;2022-11-30T14:12:57;18.10;;;7.82;;
71969;SDS011;59838;52.152;5.436;2022-11-30T14:23:21;19.43;;;8.00;;
71969;SDS011;59838;52.152;5.436;2022-11-30T14:25:57;17.75;;;7.53;;
71969;SDS011;59838;52.152;5.436;2022-11-30T14:28:41;16.10;;;7.75;;
71969;SDS011;59838;52.152;5.436;2022-11-30T14:31:15;17.67;;;8.45;;
71969;SDS011;59838;52.152;5.436;2022-11-30T14:36:34;14.37;;;7.03;;
71969;SDS011;59838;52.152;5.436;2022-11-30T14:39:21;17.92;;;7.70;;
71969;SDS011;59838;52.152;5.436;2022-11-30T14:41:59;15.38;;;7.55;;
71969;SDS011;59838;52.152;5.436;2022-11-30T14:44:26;16.17;;;8.00;;
71969;SDS011;59838;52.152;5.436;2022-11-30T14:46:53;22.50;;;9.25;;
71969;SDS011;59838;52.152;5.436;2022-11-30T14:49:20;20.67;;;9.70;;
71969;SDS011;59838;52.152;5.436;2022-11-30T14:51:52;18.23;;;8.55;;
71969;SDS011;59838;52.152;5.436;2022-11-30T14:54:25;19.27;;;9.80;;
71969;SDS011;59838;52.152;5.436;2022-11-30T14:57:04;18.63;;;7.75;;
71969;SDS011;59838;52.152;5.436;2022-11-30T14:59:46;16.45;;;8.05;;
71969;SDS011;59838;52.152;5.436;2022-11-30T15:02:17;19.50;;;8.60;;
71969;SDS011;59838;52.152;5.436;2022-11-30T15:04:48;18.48;;;8.32;;
71969;SDS011;59838;52.152;5.436;2022-11-30T15:07:17;17.80;;;8.30;;
71969;SDS011;59838;52.152;5.436;2022-11-30T15:09:45;19.65;;;7.90;;
71969;SDS011;59838;52.152;5.436;2022-11-30T15:12:16;18.20;;;8.27;;
71969;SDS011;59838;52.152;5.436;2022-11-30T15:14:59;21.33;;;8.30;;
71969;SDS011;59838;52.152;5.436;2022-11-30T15:17:41;18.42;;;8.43;;
71969;SDS011;59838;52.152;5.436;2022-11-30T15:20:30;17.77;;;8.68;;
71969;SDS011;59838;52.152;5.436;2022-11-30T15:23:04;20.02;;;8.70;;
71969;SDS011;59838;52.152;5.436;2022-11-30T15:25:47;19.98;;;8.10;;
71969;SDS011;59838;52.152;5.436;2022-11-30T15:28:21;18.43;;;8.27;;
71969;SDS011;59838;52.152;5.436;2022-11-30T15:30:52;21.58;;;8.05;;
71969;SDS011;59838;52.152;5.436;2022-11-30T15:33:25;22.15;;;9.20;;
71969;SDS011;59838;52.152;5.436;2022-11-30T15:36:15;21.85;;;8.75;;
71969;SDS011;59838;52.152;5.436;2022-11-30T15:38:58;20.55;;;9.93;;
71969;SDS011;59838;52.152;5.436;2022-11-30T15:41:31;22.63;;;9.03;;
71969;SDS011;59838;52.152;5.436;2022-11-30T15:43:59;16.55;;;8.20;;
71969;SDS011;59838;52.152;5.436;2022-11-30T15:46:36;21.02;;;9.65;;
71969;SDS011;59838;52.152;5.436;2022-11-30T15:49:22;18.92;;;9.15;;
71969;SDS011;59838;52.152;5.436;2022-11-30T15:52:14;17.85;;;9.18;;
71969;SDS011;59838;52.152;5.436;2022-11-30T15:54:43;19.37;;;8.90;;
71969;SDS011;59838;52.152;5.436;2022-11-30T15:57:21;18.13;;;8.50;;
71969;SDS011;59838;52.152;5.436;2022-11-30T16:00:14;22.52;;;9.35;;
71969;SDS011;59838;52.152;5.436;2022-11-30T16:02:45;19.45;;;9.05;;
71969;SDS011;59838;52.152;5.436;2022-11-30T16:07:47;19.83;;;8.70;;
71969;SDS011;59838;52.152;5.436;2022-11-30T16:10:18;22.17;;;9.90;;
71969;SDS011;59838;52.152;5.436;2022-11-30T16:12:47;23.83;;;9.15;;
71969;SDS011;59838;52.152;5.436;2022-11-30T16:17:46;19.25;;;9.15;;
71969;SDS011;59838;52.152;5.436;2022-11-30T16:20:14;19.90;;;8.63;;
71969;SDS011;59838;52.152;5.436;2022-11-30T16:22:42;21.00;;;9.45;;
71969;SDS011;59838;52.152;5.436;2022-11-30T16:25:14;18.33;;;9.05;;
71969;SDS011;59838;52.152;5.436;2022-11-30T16:27:42;19.92;;;9.30;;
71969;SDS011;59838;52.152;5.436;2022-11-30T16:30:12;23.73;;;10.93;;
71969;SDS011;59838;52.152;5.436;2022-11-30T16:32:40;18.53;;;9.30;;
71969;SDS011;59838;52.152;5.436;2022-11-30T16:35:17;19.42;;;8.82;;
71969;SDS011;59838;52.152;5.436;2022-11-30T16:37:47;20.25;;;10.07;;
71969;SDS011;59838;52.152;5.436;2022-11-30T16:40:14;20.90;;;9.82;;
71969;SDS011;59838;52.152;5.436;2022-11-30T16:42:41;23.58;;;9.85;;
71969;SDS011;59838;52.152;5.436;2022-11-30T16:45:20;18.40;;;8.73;;
71969;SDS011;59838;52.152;5.436;2022-11-30T16:47:49;23.10;;;9.80;;
71969;SDS011;59838;52.152;5.436;2022-11-30T16:50:16;19.55;;;9.02;;
71969;SDS011;59838;52.152;5.436;2022-11-30T16:52:44;21.50;;;9.93;;
71969;SDS011;59838;52.152;5.436;2022-11-30T16:55:12;20.38;;;10.05;;
71969;SDS011;59838;52.152;5.436;2022-11-30T16:57:43;19.17;;;9.40;;
71969;SDS011;59838;52.152;5.436;2022-11-30T17:00:11;22.80;;;10.02;;